Terminal Aerodrome Forecast
Issued by NWS Pittsburgh, PA

Current Version | Previous Version | Graphics & Text | Print | Product List | Glossary On
Versions: 1 2 3 4 5 6 7 8 9 10 11 12 13 14 15 16 17 18 19 20 21 22 23 24 25 26 27
000
FTUS41 KPBZ 161120
TAFPIT
TAF
KPIT 161120Z 1612/1718 31010KT P6SM -DZ SCT025 OVC035
     FM161600 33012KT P6SM BKN035
     FM162000 32012KT P6SM SCT040
     FM170200 00000KT P6SM SKC
     FM171500 24005KT P6SM SKC=

USA.gov is the U.S. government's official web portal to all federal, state and local government web resources and services.